createdAt,value
2019-05-09T00:00:46.365Z,75.90
2019-05-09T00:03:16.072Z,75.90
2019-05-09T00:05:45.607Z,75.90
2019-05-09T00:08:15.552Z,76.00
2019-05-09T00:10:45.220Z,75.80
2019-05-09T00:13:15.083Z,75.80
2019-05-09T00:15:44.827Z,75.70
2019-05-09T00:18:14.555Z,75.90
2019-05-09T00:20:48.285Z,75.50
2019-05-09T00:23:18.088Z,75.50
2019-05-09T00:25:47.721Z,75.60
2019-05-09T00:28:17.237Z,75.30
2019-05-09T00:30:55.708Z,75.40
2019-05-09T00:33:29.993Z,75.30
2019-05-09T00:35:59.836Z,75.20
2019-05-09T00:38:43.609Z,75.10
2019-05-09T00:41:14.123Z,75.30
2019-05-09T00:43:45.573Z,75.30
2019-05-09T00:46:17.349Z,75.50
2019-05-09T00:48:49.717Z,75.10
2019-05-09T00:51:19.462Z,75.10
2019-05-09T00:53:49.382Z,75.00
2019-05-09T00:56:19.017Z,75.00
2019-05-09T00:58:48.543Z,75.10
2019-05-09T01:01:18.561Z,74.60
2019-05-09T01:03:48.179Z,74.50
2019-05-09T01:06:18.315Z,74.40
2019-05-09T01:08:48.010Z,74.10
2019-05-09T01:11:17.750Z,74.20
2019-05-09T01:13:47.376Z,73.80
2019-05-09T01:16:17.180Z,73.70
2019-05-09T01:18:47.242Z,74.00
2019-05-09T01:21:16.784Z,73.70
2019-05-09T01:23:46.431Z,73.60
2019-05-09T01:26:16.380Z,73.60
2019-05-09T01:28:46.497Z,73.60
2019-05-09T01:31:16.430Z,73.60
2019-05-09T01:33:47.764Z,73.80
2019-05-09T01:36:18.092Z,74.20
2019-05-09T01:38:47.819Z,74.00
2019-05-09T01:41:27.875Z,74.00
2019-05-09T01:43:50.444Z,73.70
2019-05-09T01:46:23.434Z,73.60
2019-05-09T01:48:53.871Z,73.60
2019-05-09T01:51:24.159Z,73.60
2019-05-09T01:53:55.062Z,73.70
2019-05-09T01:56:24.867Z,73.60
2019-05-09T01:58:54.498Z,73.30
2019-05-09T02:01:24.539Z,73.60
2019-05-09T02:03:54.323Z,73.80
2019-05-09T02:06:24.567Z,73.50
2019-05-09T02:08:54.651Z,73.50
2019-05-09T02:11:38.429Z,73.30
2019-05-09T02:13:55.531Z,73.30
2019-05-09T02:16:35.807Z,73.30
2019-05-09T02:19:15.716Z,73.60
2019-05-09T02:21:45.347Z,73.90
2019-05-09T02:24:15.277Z,73.80
2019-05-09T02:26:44.715Z,73.50
2019-05-09T02:29:14.607Z,73.50
2019-05-09T02:31:44.909Z,73.20
2019-05-09T02:34:15.179Z,73.10
2019-05-09T02:36:49.374Z,73.10
2019-05-09T02:39:18.906Z,72.90
2019-05-09T02:42:01.181Z,73.10
2019-05-09T02:44:21.531Z,73.40
2019-05-09T02:47:01.731Z,73.50
2019-05-09T02:49:31.416Z,73.60
2019-05-09T02:52:00.939Z,73.90
2019-05-09T02:54:30.631Z,73.90
2019-05-09T02:57:00.361Z,73.60
2019-05-09T02:59:34.491Z,73.80
2019-05-09T03:02:11.644Z,74.10
2019-05-09T03:04:41.554Z,73.70
2019-05-09T03:07:11.660Z,74.00
2019-05-09T03:09:41.025Z,74.00
2019-05-09T03:12:26.912Z,74.00
2019-05-09T03:14:42.002Z,73.80
2019-05-09T03:17:11.679Z,74.10
2019-05-09T03:19:41.488Z,74.20
2019-05-09T03:22:19.071Z,74.10
2019-05-09T03:24:48.842Z,74.30
2019-05-09T03:27:28.791Z,74.40
2019-05-09T03:29:59.364Z,74.40
2019-05-09T03:32:29.738Z,74.60
2019-05-09T03:34:59.974Z,74.60
2019-05-09T03:37:30.290Z,74.70
2019-05-09T03:40:00.451Z,74.60
2019-05-09T03:42:42.567Z,74.90
2019-05-09T03:45:01.422Z,75.10
2019-05-09T03:47:37.653Z,74.80
2019-05-09T03:50:08.940Z,75.00
2019-05-09T03:52:38.628Z,74.80
2019-05-09T03:55:11.748Z,74.70
2019-05-09T03:57:42.940Z,74.60
2019-05-09T04:00:13.025Z,74.70
2019-05-09T04:02:42.453Z,74.80
2019-05-09T04:05:13.432Z,74.70
2019-05-09T04:07:43.352Z,75.00
2019-05-09T04:10:13.093Z,75.20
2019-05-09T04:12:53.863Z,75.30
2019-05-09T04:15:19.050Z,75.70
2019-05-09T04:17:48.306Z,75.50
2019-05-09T04:20:17.753Z,76.00
2019-05-09T04:22:49.005Z,76.10
2019-05-09T04:25:20.362Z,75.70
2019-05-09T04:27:52.566Z,75.70
2019-05-09T04:30:22.434Z,75.90
2019-05-09T04:32:52.351Z,76.10
2019-05-09T04:35:21.792Z,76.00
2019-05-09T04:37:51.782Z,76.20
2019-05-09T04:40:22.088Z,76.30
2019-05-09T04:42:52.157Z,76.20
2019-05-09T04:45:40.236Z,76.40
2019-05-09T04:48:13.157Z,76.50
2019-05-09T04:50:40.773Z,76.40
2019-05-09T04:53:10.499Z,76.30
2019-05-09T04:55:40.337Z,76.50
2019-05-09T04:58:10.056Z,76.30
2019-05-09T05:00:57.693Z,76.30
2019-05-09T05:03:28.360Z,76.50
2019-05-09T05:05:58.678Z,76.40
2019-05-09T05:08:28.781Z,76.60
2019-05-09T05:10:58.515Z,76.50
2019-05-09T05:13:29.755Z,76.60
2019-05-09T05:16:00.041Z,76.60
2019-05-09T05:18:29.899Z,76.60
2019-05-09T05:20:59.538Z,76.30
2019-05-09T05:23:38.082Z,76.10
2019-05-09T05:26:09.393Z,76.20
2019-05-09T05:28:39.580Z,76.10
2019-05-09T05:31:09.210Z,76.10
2019-05-09T05:33:41.279Z,75.70
2019-05-09T05:36:12.970Z,75.50
2019-05-09T05:38:43.086Z,74.90
2019-05-09T05:41:12.606Z,75.10
2019-05-09T05:43:44.730Z,75.20
2019-05-09T05:46:18.804Z,75.30
2019-05-09T05:48:49.832Z,74.60
2019-05-09T05:51:19.253Z,75.30
2019-05-09T05:53:49.096Z,74.60
2019-05-09T05:56:18.830Z,74.90
2019-05-09T05:58:48.981Z,74.30
2019-05-09T06:01:19.072Z,75.00
2019-05-09T06:03:49.817Z,75.30
2019-05-09T06:06:19.521Z,75.10
2019-05-09T06:08:49.440Z,75.40
2019-05-09T06:11:19.764Z,73.80
2019-05-09T06:13:56.930Z,73.50
2019-05-09T06:16:22.373Z,72.70
2019-05-09T06:18:52.256Z,73.20
2019-05-09T06:21:22.481Z,73.20
2019-05-09T06:23:52.187Z,72.40
2019-05-09T06:26:21.908Z,72.80
2019-05-09T06:28:51.629Z,73.80
2019-05-09T06:31:21.511Z,72.30
2019-05-09T06:33:53.477Z,71.50
2019-05-09T06:36:23.585Z,71.80
2019-05-09T06:38:54.139Z,71.00
2019-05-09T06:41:24.238Z,71.10
2019-05-09T06:44:13.140Z,71.60
2019-05-09T06:46:33.965Z,70.60
2019-05-09T06:49:24.193Z,70.20
2019-05-09T06:51:44.407Z,70.90
2019-05-09T06:54:14.104Z,71.70
2019-05-09T06:56:47.445Z,71.20
2019-05-09T06:59:18.964Z,71.40
2019-05-09T07:01:52.456Z,71.70
2019-05-09T07:04:23.733Z,70.90
2019-05-09T07:06:55.099Z,72.50
2019-05-09T07:09:28.027Z,72.50
2019-05-09T07:11:58.587Z,69.70
2019-05-09T07:14:37.930Z,69.40
2019-05-09T07:17:07.841Z,70.20
2019-05-09T07:19:38.284Z,69.80
2019-05-09T07:22:18.477Z,71.20
2019-05-09T07:25:05.888Z,70.80
2019-05-09T07:27:32.571Z,72.10
2019-05-09T07:30:07.672Z,70.30
2019-05-09T07:32:42.320Z,68.30
2019-05-09T07:35:12.936Z,69.70
2019-05-09T07:37:42.597Z,67.20
2019-05-09T07:40:12.386Z,67.90
2019-05-09T07:42:42.080Z,66.80
2019-05-09T07:45:11.919Z,67.00
2019-05-09T07:47:42.046Z,64.60
2019-05-09T07:50:11.844Z,66.00
2019-05-09T07:52:41.900Z,67.80
2019-05-09T07:55:11.618Z,66.50
2019-05-09T07:57:46.288Z,66.40
2019-05-09T08:00:13.458Z,65.80
2019-05-09T08:02:43.247Z,64.70
2019-05-09T08:05:17.395Z,65.20
2019-05-09T08:07:48.561Z,66.40
2019-05-09T08:10:18.612Z,67.30
2019-05-09T08:12:48.176Z,64.10
2019-05-09T08:15:20.299Z,64.10
2019-05-09T08:17:49.156Z,64.90
2019-05-09T08:20:18.707Z,64.60
2019-05-09T08:22:57.392Z,64.60
2019-05-09T08:25:20.173Z,64.70
2019-05-09T08:27:50.278Z,66.60
2019-05-09T08:30:19.929Z,65.30
2019-05-09T08:32:50.750Z,64.20
2019-05-09T08:35:20.598Z,64.90
2019-05-09T08:37:50.720Z,62.10
2019-05-09T08:40:21.563Z,61.30
2019-05-09T08:42:52.003Z,60.00
2019-05-09T08:45:27.540Z,62.00
2019-05-09T08:47:53.407Z,61.10
2019-05-09T08:50:24.740Z,62.20
2019-05-09T08:52:54.669Z,54.90
2019-05-09T08:55:24.608Z,58.00
2019-05-09T08:57:54.139Z,57.80
2019-05-09T09:00:24.267Z,57.10
2019-05-09T09:02:54.392Z,56.90
2019-05-09T09:05:24.293Z,55.70
2019-05-09T09:07:53.922Z,55.60
2019-05-09T09:10:23.736Z,56.50
2019-05-09T09:12:53.581Z,58.00
2019-05-09T09:15:23.983Z,56.30
2019-05-09T09:17:54.043Z,58.20
2019-05-09T09:20:23.787Z,57.60
2019-05-09T09:22:53.213Z,59.10
2019-05-09T09:25:22.855Z,60.10
2019-05-09T09:27:52.496Z,56.90
2019-05-09T09:30:25.198Z,60.50
2019-05-09T09:32:53.741Z,60.00
2019-05-09T09:35:23.474Z,56.30
2019-05-09T09:37:54.205Z,61.60
2019-05-09T09:40:24.131Z,55.90
2019-05-09T09:42:53.835Z,54.50
2019-05-09T09:45:23.281Z,51.70
2019-05-09T09:47:52.811Z,57.00
2019-05-09T09:50:22.760Z,52.60
2019-05-09T09:52:52.659Z,55.90
2019-05-09T09:55:22.713Z,56.00
2019-05-09T09:57:52.239Z,54.60
2019-05-09T10:00:49.521Z,54.30
2019-05-09T10:03:19.223Z,53.20
2019-05-09T10:05:48.937Z,52.20
2019-05-09T10:08:18.508Z,52.50
2019-05-09T10:10:48.598Z,53.90
2019-05-09T10:13:19.462Z,53.10
2019-05-09T10:16:02.915Z,51.00
2019-05-09T10:18:38.144Z,52.90
2019-05-09T10:21:09.634Z,46.40
2019-05-09T10:23:39.374Z,47.10
2019-05-09T10:26:10.014Z,51.80
2019-05-09T10:28:40.354Z,48.20
2019-05-09T10:31:09.905Z,50.10
2019-05-09T10:33:39.822Z,44.40
2019-05-09T10:36:09.749Z,43.80
2019-05-09T10:38:39.436Z,45.50
2019-05-09T10:41:11.369Z,46.20
2019-05-09T10:43:51.340Z,47.30
2019-05-09T10:46:52.016Z,49.20
2019-05-09T10:49:09.457Z,45.40
2019-05-09T10:51:40.341Z,46.70
2019-05-09T10:54:10.108Z,45.20
2019-05-09T10:56:39.551Z,47.00
2019-05-09T10:59:10.040Z,48.40
2019-05-09T11:01:41.181Z,49.00
2019-05-09T11:04:10.899Z,48.60
2019-05-09T11:06:40.732Z,47.10
2019-05-09T11:09:11.329Z,49.40
2019-05-09T11:11:41.130Z,49.90
2019-05-09T11:14:27.949Z,47.40
2019-05-09T11:16:49.116Z,49.90
2019-05-09T11:19:18.304Z,50.90
2019-05-09T11:21:47.882Z,50.10
2019-05-09T11:24:18.772Z,49.50
2019-05-09T11:26:48.666Z,52.40
2019-05-09T11:29:18.867Z,50.40
2019-05-09T11:31:49.171Z,51.80
2019-05-09T11:34:19.696Z,50.70
2019-05-09T11:36:49.830Z,52.90
2019-05-09T11:39:35.184Z,51.70
2019-05-09T11:41:51.463Z,50.10
2019-05-09T11:44:21.217Z,52.20
2019-05-09T11:46:51.111Z,50.30
2019-05-09T11:49:21.036Z,47.10
2019-05-09T11:51:50.737Z,48.70
2019-05-09T11:54:20.662Z,52.50
2019-05-09T11:56:50.620Z,40.50
2019-05-09T11:59:20.073Z,42.30
2019-05-09T12:01:49.961Z,41.70
2019-05-09T12:04:19.415Z,41.90
2019-05-09T12:06:49.497Z,44.50
2019-05-09T12:09:19.289Z,47.40
2019-05-09T12:11:49.011Z,41.60
2019-05-09T12:14:19.316Z,39.90
2019-05-09T12:16:50.068Z,42.30
2019-05-09T12:19:21.412Z,37.40
2019-05-09T12:21:51.252Z,37.50
2019-05-09T12:24:20.685Z,38.60
2019-05-09T12:26:50.227Z,39.30
2019-05-09T12:29:19.935Z,37.00
2019-05-09T12:31:49.795Z,38.30
2019-05-09T12:34:19.706Z,34.10
2019-05-09T12:36:49.810Z,33.10
2019-05-09T12:39:19.906Z,35.70
2019-05-09T12:41:49.601Z,33.60
2019-05-09T12:44:19.377Z,32.50
2019-05-09T12:46:49.159Z,33.60
2019-05-09T12:49:19.247Z,35.50
2019-05-09T12:51:49.024Z,35.10
2019-05-09T12:54:19.138Z,38.20
2019-05-09T12:56:48.884Z,36.70
2019-05-09T12:59:19.416Z,36.30
2019-05-09T13:01:49.356Z,36.90
2019-05-09T13:04:19.427Z,38.00
2019-05-09T13:06:49.160Z,37.00
2019-05-09T13:09:19.089Z,37.80
2019-05-09T13:11:48.949Z,39.40
2019-05-09T13:14:19.704Z,38.00
2019-05-09T13:16:53.625Z,39.60
2019-05-09T13:19:34.076Z,37.40
2019-05-09T13:22:04.476Z,37.30
2019-05-09T13:24:34.098Z,38.00
2019-05-09T13:27:04.217Z,38.40
2019-05-09T13:29:34.527Z,38.80
2019-05-09T13:32:04.041Z,37.70
2019-05-09T13:34:33.771Z,38.90
2019-05-09T13:37:04.215Z,37.80
2019-05-09T13:39:33.939Z,38.40
2019-05-09T13:42:03.589Z,42.00
2019-05-09T13:44:33.379Z,43.60
2019-05-09T13:47:03.168Z,41.70
2019-05-09T13:49:32.832Z,41.50
2019-05-09T13:52:04.967Z,41.70
2019-05-09T13:54:34.677Z,44.00
2019-05-09T13:57:05.023Z,41.90
2019-05-09T13:59:37.408Z,41.40
2019-05-09T14:02:07.487Z,43.40
2019-05-09T14:04:39.451Z,44.00
2019-05-09T14:07:08.900Z,49.50
2019-05-09T14:09:38.911Z,48.40
2019-05-09T14:12:09.413Z,44.50
2019-05-09T14:14:40.134Z,44.90
2019-05-09T14:17:13.557Z,48.10
2019-05-09T14:19:46.735Z,48.10
2019-05-09T14:22:14.475Z,54.00
2019-05-09T14:24:43.938Z,56.70
2019-05-09T14:27:14.018Z,53.30
2019-05-09T14:29:43.887Z,55.00
2019-05-09T14:32:13.837Z,56.00
2019-05-09T14:34:43.735Z,55.50
2019-05-09T14:37:13.652Z,54.20
2019-05-09T14:39:55.830Z,54.60
2019-05-09T14:42:14.523Z,50.80
2019-05-09T14:44:44.620Z,51.00
2019-05-09T14:47:14.355Z,48.80
2019-05-09T14:49:44.759Z,47.40
2019-05-09T14:52:14.749Z,43.70
2019-05-09T14:54:44.933Z,41.80
2019-05-09T14:57:14.579Z,38.90
2019-05-09T14:59:44.729Z,37.20
2019-05-09T15:02:14.428Z,39.70
2019-05-09T15:04:44.935Z,36.20
2019-05-09T15:07:14.654Z,37.80
2019-05-09T15:09:44.308Z,39.70
2019-05-09T15:12:14.099Z,43.70
2019-05-09T15:14:43.800Z,49.70
2019-05-09T15:17:13.730Z,50.40
2019-05-09T15:19:56.400Z,52.50
2019-05-09T15:22:14.735Z,51.00
2019-05-09T15:24:44.501Z,54.50
2019-05-09T15:27:14.551Z,58.10
2019-05-09T15:29:43.995Z,60.00
2019-05-09T15:32:13.530Z,59.10
2019-05-09T15:34:43.285Z,61.00
2019-05-09T15:37:14.457Z,62.80
2019-05-09T15:39:48.154Z,61.10
2019-05-09T15:42:18.238Z,59.80
2019-05-09T15:44:48.102Z,62.30
2019-05-09T15:47:19.554Z,62.80
2019-05-09T15:49:49.571Z,65.70
2019-05-09T15:52:19.416Z,66.40
2019-05-09T15:54:49.165Z,67.50
2019-05-09T15:57:18.831Z,69.20
2019-05-09T15:59:48.548Z,69.20
2019-05-09T16:02:19.274Z,69.00
2019-05-09T16:04:49.851Z,70.10
2019-05-09T16:07:19.542Z,70.00
2019-05-09T16:09:49.863Z,70.70
2019-05-09T16:12:19.519Z,70.30
2019-05-09T16:14:49.295Z,71.80
2019-05-09T16:17:19.335Z,71.40
2019-05-09T16:19:49.095Z,72.20
2019-05-09T16:22:19.041Z,72.10
2019-05-09T16:24:48.912Z,72.10
2019-05-09T16:27:18.620Z,71.70
2019-05-09T16:29:48.676Z,72.50
2019-05-09T16:32:18.261Z,73.80
2019-05-09T16:34:48.575Z,73.60
2019-05-09T16:37:18.338Z,73.00
2019-05-09T16:39:48.124Z,72.80
2019-05-09T16:42:17.549Z,72.60
2019-05-09T16:44:48.130Z,72.20
2019-05-09T16:47:21.655Z,72.30
2019-05-09T16:49:49.872Z,71.00
2019-05-09T16:52:19.635Z,69.80
2019-05-09T16:54:50.914Z,68.80
2019-05-09T16:57:20.862Z,68.70
2019-05-09T16:59:50.551Z,67.70
2019-05-09T17:02:24.646Z,67.50
2019-05-09T17:04:51.636Z,68.10
2019-05-09T17:07:21.867Z,68.30
2019-05-09T17:09:52.663Z,69.40
2019-05-09T17:12:22.114Z,69.80
2019-05-09T17:14:51.911Z,69.70
2019-05-09T17:17:21.587Z,70.00
2019-05-09T17:19:51.307Z,70.80
2019-05-09T17:22:22.654Z,71.20
2019-05-09T17:24:52.224Z,70.30
2019-05-09T17:27:22.659Z,70.60
2019-05-09T17:29:52.613Z,67.50
2019-05-09T17:32:23.279Z,66.00
2019-05-09T17:34:53.035Z,67.50
2019-05-09T17:37:23.114Z,65.60
2019-05-09T17:39:53.258Z,64.60
2019-05-09T17:42:22.982Z,64.40
2019-05-09T17:44:52.899Z,64.30
2019-05-09T17:47:22.687Z,64.30
2019-05-09T17:49:52.530Z,64.70
2019-05-09T17:52:22.019Z,63.60
2019-05-09T17:54:51.851Z,63.70
2019-05-09T17:57:21.314Z,63.90
2019-05-09T17:59:51.162Z,64.30
2019-05-09T18:02:20.613Z,65.00
2019-05-09T18:04:50.351Z,65.00
2019-05-09T18:07:20.408Z,64.20
2019-05-09T18:09:49.856Z,64.00
2019-05-09T18:12:19.780Z,64.00
2019-05-09T18:14:49.428Z,62.20
2019-05-09T18:17:19.492Z,62.40
2019-05-09T18:19:49.478Z,61.60
2019-05-09T18:22:19.414Z,61.50
2019-05-09T18:24:49.808Z,62.50
2019-05-09T18:27:19.307Z,61.70
2019-05-09T18:29:49.056Z,61.50
2019-05-09T18:32:23.131Z,60.40
2019-05-09T18:34:54.664Z,61.70
2019-05-09T18:37:24.714Z,61.40
2019-05-09T18:39:54.644Z,62.20
2019-05-09T18:42:24.366Z,62.40
2019-05-09T18:44:54.732Z,61.80
2019-05-09T18:47:25.046Z,62.40
2019-05-09T18:49:54.708Z,62.00
2019-05-09T18:52:25.554Z,60.90
2019-05-09T18:54:55.377Z,61.30
2019-05-09T18:57:25.111Z,60.90
2019-05-09T18:59:54.818Z,61.30
2019-05-09T19:02:24.769Z,61.70
2019-05-09T19:04:54.659Z,61.00
2019-05-09T19:07:24.136Z,61.70
2019-05-09T19:09:53.867Z,60.90
2019-05-09T19:12:23.617Z,59.60
2019-05-09T19:14:53.163Z,57.70
2019-05-09T19:17:27.295Z,56.50
2019-05-09T19:19:59.267Z,56.80
2019-05-09T19:22:28.939Z,58.00
2019-05-09T19:24:58.577Z,56.40
2019-05-09T19:27:28.335Z,58.90
2019-05-09T19:29:58.082Z,58.90
2019-05-09T19:32:28.331Z,58.80
2019-05-09T19:34:58.072Z,56.70
2019-05-09T19:37:27.714Z,56.50
2019-05-09T19:39:57.456Z,58.30
2019-05-09T19:42:27.197Z,56.90
2019-05-09T19:44:56.873Z,56.00
2019-05-09T19:47:26.392Z,57.60
2019-05-09T19:49:55.874Z,58.00
2019-05-09T19:52:37.823Z,60.20
2019-05-09T19:54:57.346Z,58.90
2019-05-09T19:57:27.092Z,60.50
2019-05-09T19:59:57.189Z,62.20
2019-05-09T20:02:26.886Z,62.20
2019-05-09T20:04:56.617Z,62.40
2019-05-09T20:07:26.532Z,62.70
2019-05-09T20:09:58.086Z,63.10
2019-05-09T20:12:38.411Z,62.80
2019-05-09T20:15:10.217Z,62.10
2019-05-09T20:17:40.666Z,61.90
2019-05-09T20:20:10.974Z,61.50
2019-05-09T20:22:52.019Z,61.60
2019-05-09T20:25:11.969Z,61.70
2019-05-09T20:27:41.994Z,61.30
2019-05-09T20:30:12.059Z,60.10
2019-05-09T20:32:41.998Z,60.10
2019-05-09T20:35:12.818Z,60.40
2019-05-09T20:37:42.806Z,60.00
2019-05-09T20:40:12.748Z,60.60
2019-05-09T20:42:42.683Z,60.60
2019-05-09T20:45:13.510Z,60.40
2019-05-09T20:47:43.743Z,60.40
2019-05-09T20:50:13.933Z,61.10
2019-05-09T20:52:43.776Z,62.00
2019-05-09T20:55:14.394Z,61.90
2019-05-09T20:57:45.233Z,61.70
2019-05-09T21:00:15.894Z,62.00
2019-05-09T21:02:45.896Z,62.10
2019-05-09T21:05:15.790Z,62.30
2019-05-09T21:07:45.639Z,62.90
2019-05-09T21:10:15.692Z,62.80
2019-05-09T21:12:46.129Z,62.90
2019-05-09T21:15:16.228Z,64.00
2019-05-09T21:17:46.317Z,64.50
2019-05-09T21:20:16.179Z,64.60
2019-05-09T21:22:46.210Z,65.00
2019-05-09T21:25:16.261Z,65.10
2019-05-09T21:27:46.203Z,66.00
2019-05-09T21:30:16.663Z,66.60
2019-05-09T21:32:46.599Z,67.10
2019-05-09T21:35:16.174Z,66.30
2019-05-09T21:37:46.134Z,66.20
2019-05-09T21:40:15.823Z,66.40
2019-05-09T21:42:45.716Z,66.10
2019-05-09T21:45:15.608Z,66.60
2019-05-09T21:47:45.363Z,66.10
2019-05-09T21:50:16.646Z,66.10
2019-05-09T21:52:46.793Z,66.30
2019-05-09T21:55:16.525Z,66.50
2019-05-09T21:57:46.650Z,65.60
2019-05-09T22:00:24.063Z,66.20
2019-05-09T22:02:54.482Z,66.20
2019-05-09T22:05:24.646Z,66.50
2019-05-09T22:07:54.486Z,66.80
2019-05-09T22:10:24.595Z,66.70
2019-05-09T22:12:53.963Z,67.20
2019-05-09T22:15:24.195Z,67.90
2019-05-09T22:17:54.181Z,68.80
2019-05-09T22:20:24.177Z,69.60
2019-05-09T22:22:54.179Z,70.50
2019-05-09T22:25:23.950Z,72.30
2019-05-09T22:27:54.367Z,73.50
2019-05-09T22:30:24.250Z,74.60
2019-05-09T22:32:53.987Z,75.90
2019-05-09T22:35:24.508Z,76.80
2019-05-09T22:37:54.733Z,76.60
2019-05-09T22:40:24.165Z,77.30
2019-05-09T22:42:54.699Z,77.30
2019-05-09T22:45:24.865Z,78.00
2019-05-09T22:47:54.926Z,78.40
2019-05-09T22:50:24.623Z,79.00
2019-05-09T22:52:54.353Z,79.20
2019-05-09T22:55:24.802Z,79.40
2019-05-09T22:57:55.763Z,79.70
2019-05-09T23:00:25.978Z,79.70
2019-05-09T23:02:55.609Z,80.00
2019-05-09T23:05:25.375Z,80.20
2019-05-09T23:07:55.238Z,80.50
2019-05-09T23:10:25.434Z,80.70
2019-05-09T23:12:55.087Z,80.90
2019-05-09T23:15:24.743Z,81.10
2019-05-09T23:17:55.124Z,81.20
2019-05-09T23:20:26.509Z,81.30
2019-05-09T23:22:56.434Z,81.50
2019-05-09T23:25:26.676Z,81.50
2019-05-09T23:27:56.655Z,81.60
2019-05-09T23:30:26.526Z,81.60
2019-05-09T23:32:56.835Z,81.70
2019-05-09T23:35:26.747Z,81.70
2019-05-09T23:37:57.642Z,81.80
2019-05-09T23:40:27.598Z,81.70
2019-05-09T23:42:57.300Z,81.80
2019-05-09T23:45:26.768Z,81.80
2019-05-09T23:47:56.695Z,81.90
2019-05-09T23:50:26.640Z,82.00
2019-05-09T23:52:56.342Z,82.00
2019-05-09T23:55:44.352Z,82.00
2019-05-09T23:58:32.807Z,82.00
